Time;durP1;ratioP1;P1;durP2;ratioP2;P2;SDS_P1;SDS_P2;PMS_P1;PMS_P2;Temp;Humidity;BMP_temperature;BMP_pressure;BME280_temperature;BME280_humidity;BME280_pressure;Samples;Min_cycle;Max_cycle;Signal;HPM_P1;HPM_P2
2022/04/04 00:01:15;;;;;;;;;;;;;;;;;;5034931;28;19924;-65
2022/04/04 00:03:41;;;;;;;;;;;;;;;;;;5022148;28;20033;-65
2022/04/04 00:06:07;;;;;;;;;;;;;;;;;;5028596;28;20008;-65
2022/04/04 00:08:34;;;;;;;;;;;;;;;;;;5018061;28;19932;-65
2022/04/04 00:11:00;;;;;;;;;;;;;;;;;;5029165;28;20268;-65
2022/04/04 00:13:27;;;;;;;;;;;;;;;;;;5016378;28;19930;-65
2022/04/04 00:15:53;;;;;;;;;;;;;;;;;;5022379;28;20019;-65
2022/04/04 00:18:19;;;;;;;;;;;;;;;;;;5026512;28;19929;-65
2022/04/04 00:20:45;;;;;;;;;;;;;;;;;;5020548;28;19933;-65
2022/04/04 00:23:13;;;;;;;;;;;;;;;;;;5024408;28;20622;-65
2022/04/04 00:25:39;;;;;;;;;;;;;;;;;;5017477;28;19929;-65
2022/04/04 00:28:05;;;;;;;;;;;;;;;;;;5024309;28;19936;-65
2022/04/04 00:30:31;;;;;;;;;;;;;;;;;;5021580;28;19933;-64
2022/04/04 00:32:58;;;;;;;;;;;;;;;;;;5023893;28;19961;-65
2022/04/04 00:35:24;;;;;;;;;;;;;;;;;;5016963;28;20302;-66
2022/04/04 00:37:50;;;;;;;;;;;;;;;;;;5029407;28;20294;-66
2022/04/04 00:40:16;;;;;;;;;;;;;;;;;;5027765;28;19929;-66
2022/04/04 00:42:42;;;;;;;;;;;;;;;;;;5019136;28;19933;-66
2022/04/04 00:45:08;;;;;;;;;;;;;;;;;;5014478;28;19937;-66
2022/04/04 00:47:35;;;;;;;;;;;;;;;;;;5026094;28;20384;-65
2022/04/04 00:50:01;;;;;;;;;;;;;;;;;;5024987;28;19936;-66
2022/04/04 00:52:27;;;;;;;;;;;;;;;;;;5021364;28;19929;-66
2022/04/04 00:54:53;;;;;;;;;;;;;;;;;;5022371;28;19933;-66
2022/04/04 00:57:19;;;;;;;;;;;;;;;;;;5022348;28;20157;-68
2022/04/04 00:59:45;;;;;;;;;;;;;;;;;;5028722;28;19936;-68
2022/04/04 01:02:12;;;;;;;;;;;;;;;;;;5022563;28;19929;-67
2022/04/04 01:04:38;;;;;;;;;;;;;;;;;;5017120;28;19949;-67
2022/04/04 01:07:04;;;;;;;;;;;;;;;;;;5009962;28;19926;-67
2022/04/04 01:09:30;;;;;;;;;;;;;;;;;;5022433;28;20100;-68
2022/04/04 01:11:56;;;;;;;;;;;;;;;;;;5020018;28;19925;-68
2022/04/04 01:14:23;;;;;;;;;;;;;;;;;;5027731;28;19929;-67
2022/04/04 01:16:49;;;;;;;;;;;;;;;;;;5010637;28;19933;-67
2022/04/04 01:19:15;;;;;;;;;;;;;;;;;;5027469;28;19929;-66
2022/04/04 01:21:41;;;;;;;;;;;;;;;;;;5009500;28;20167;-67
2022/04/04 01:24:07;;;;;;;;;;;;;;;;;;5013187;28;19936;-67
2022/04/04 01:26:33;;;;;;;;;;;;;;;;;;5015634;28;20406;-63
2022/04/04 01:28:59;;;;;;;;;;;;;;;;;;5022944;28;19972;-62
2022/04/04 01:31:26;;;;;;;;;;;;;;;;;;5012819;28;19937;-62
2022/04/04 01:33:52;;;;;;;;;;;;;;;;;;5020532;28;20374;-63
2022/04/04 01:36:18;;;;;;;;;;;;;;;;;;5016726;28;19929;-63
2022/04/04 01:38:44;;;;;;;;;;;;;;;;;;5024085;28;19956;-65
2022/04/04 01:41:10;;;;;;;;;;;;;;;;;;4677599;28;10000303;-65
2022/04/04 01:43:36;;;;;;;;;;;;;;;;;;5015703;28;19932;-64
2022/04/04 01:48:46;;;;;;;;;;;;;;;;;;5022631;28;20460;-66
2022/04/04 01:51:12;;;;;;;;;;;;;;;;;;5025589;28;20390;-66
2022/04/04 01:53:38;;;;;;;;;;;;;;;;;;5015292;28;19932;-67
2022/04/04 01:56:05;;;;;;;;;;;;;;;;;;5018658;28;19926;-66
2022/04/04 01:58:31;;;;;;;;;;;;;;;;;;5027331;28;19932;-67
2022/04/04 02:01:01;;;;;;;;;;;;;;;;;;5018404;28;19960;-68
2022/04/04 02:03:28;;;;;;;;;;;;;;;;;;5024332;28;19933;-68
2022/04/04 02:05:54;;;;;;;;;;;;;;;;;;5017513;28;20370;-68
2022/04/04 02:08:20;;;;;;;;;;;;;;;;;;5022387;28;19924;-69
2022/04/04 02:10:47;;;;;;;;;;;;;;;;;;5027421;28;19932;-68
2022/04/04 02:13:13;;;;;;;;;;;;;;;;;;5014810;28;20291;-68
2022/04/04 02:15:39;;;;;;;;;;;;;;;;;;5021845;28;20382;-69
2022/04/04 02:18:05;;;;;;;;;;;;;;;;;;5023343;28;20313;-68
2022/04/04 02:20:32;;;;;;;;;;;;;;;;;;5025150;28;19929;-68
2022/04/04 02:22:58;;;;;;;;;;;;;;;;;;5023378;28;19979;-68
2022/04/04 02:25:24;;;;;;;;;;;;;;;;;;5031657;28;20033;-68
2022/04/04 02:27:50;;;;;;;;;;;;;;;;;;5043178;28;19925;-67
2022/04/04 02:30:16;;;;;;;;;;;;;;;;;;5047021;28;19933;-68
2022/04/04 02:32:43;;;;;;;;;;;;;;;;;;5034412;28;20398;-68
2022/04/04 02:35:09;;;;;;;;;;;;;;;;;;5045843;28;19925;-68
2022/04/04 02:37:35;;;;;;;;;;;;;;;;;;5029280;28;19925;-68
2022/04/04 02:40:03;;;;;;;;;;;;;;;;;;5043998;28;19936;-68
2022/04/04 02:42:30;;;;;;;;;;;;;;;;;;5027952;28;20379;-68
2022/04/04 02:44:56;;;;;;;;;;;;;;;;;;5033865;28;19972;-68
2022/04/04 02:47:22;;;;;;;;;;;;;;;;;;5043490;28;19929;-66
2022/04/04 02:49:48;;;;;;;;;;;;;;;;;;5044673;28;20019;-65
2022/04/04 02:52:15;;;;;;;;;;;;;;;;;;5040180;28;19934;-65
2022/04/04 02:54:41;;;;;;;;;;;;;;;;;;5037094;28;19996;-67
2022/04/04 02:57:06;;;;;;;;;;;;;;;;;;5046428;28;19932;-64
2022/04/04 02:59:32;;;;;;;;;;;;;;;;;;5044727;28;19929;-68
2022/04/04 03:01:58;;;;;;;;;;;;;;;;;;5028253;28;19936;-65
2022/04/04 03:04:25;;;;;;;;;;;;;;;;;;5031939;28;19925;-65
2022/04/04 03:06:51;;;;;;;;;;;;;;;;;;5039397;28;19967;-67
2022/04/04 03:09:17;;;;;;;;;;;;;;;;;;5034217;28;19924;-67
2022/04/04 03:11:43;;;;;;;;;;;;;;;;;;5035492;28;19982;-67
2022/04/04 03:14:09;;;;;;;;;;;;;;;;;;5024497;28;19930;-65
2022/04/04 03:16:36;;;;;;;;;;;;;;;;;;5041203;28;19963;-65
2022/04/04 03:19:03;;;;;;;;;;;;;;;;;;5039014;28;20276;-65
2022/04/04 03:21:29;;;;;;;;;;;;;;;;;;5029725;28;19979;-65
2022/04/04 03:23:55;;;;;;;;;;;;;;;;;;5037499;28;19926;-64
2022/04/04 03:26:21;;;;;;;;;;;;;;;;;;5034767;28;20405;-65
2022/04/04 03:28:47;;;;;;;;;;;;;;;;;;5031764;28;19926;-65
2022/04/04 03:31:13;;;;;;;;;;;;;;;;;;5033638;28;19929;-65
2022/04/04 03:33:40;;;;;;;;;;;;;;;;;;5030894;28;19925;-66
2022/04/04 03:36:06;;;;;;;;;;;;;;;;;;5034450;28;19933;-66
2022/04/04 03:38:32;;;;;;;;;;;;;;;;;;5031804;28;19991;-67
2022/04/04 03:40:58;;;;;;;;;;;;;;;;;;5028065;28;19925;-65
2022/04/04 03:43:24;;;;;;;;;;;;;;;;;;5015158;28;20013;-68
2022/04/04 03:45:50;;;;;;;;;;;;;;;;;;5031807;28;19925;-67
2022/04/04 03:48:17;;;;;;;;;;;;;;;;;;5030056;28;19925;-70
2022/04/04 03:50:45;;;;;;;;;;;;;;;;;;5027866;28;19933;-67
2022/04/04 03:53:11;;;;;;;;;;;;;;;;;;5035081;28;19940;-68
2022/04/04 03:55:39;;;;;;;;;;;;;;;;;;5035008;28;19925;-71
2022/04/04 03:58:05;;;;;;;;;;;;;;;;;;5023365;28;19952;-70
2022/04/04 04:00:31;;;;;;;;;;;;;;;;;;5025594;28;19983;-70
2022/04/04 04:02:57;;;;;;;;;;;;;;;;;;5028495;28;19933;-67
2022/04/04 04:05:23;;;;;;;;;;;;;;;;;;5025845;28;19976;-69
2022/04/04 04:07:49;;;;;;;;;;;;;;;;;;5021357;28;20100;-69
2022/04/04 04:10:16;;;;;;;;;;;;;;;;;;5022468;28;19926;-68
2022/04/04 04:12:42;;;;;;;;;;;;;;;;;;5027611;28;20390;-67
2022/04/04 04:15:08;;;;;;;;;;;;;;;;;;5028292;28;20390;-67
2022/04/04 04:17:34;;;;;;;;;;;;;;;;;;5031188;28;19940;-65
2022/04/04 04:22:45;;;;;;;;;;;;;;;;;;5030371;28;19997;-66
2022/04/04 04:25:14;;;;;;;;;;;;;;;;;;5021909;28;19931;-67
2022/04/04 04:27:40;;;;;;;;;;;;;;;;;;5027096;28;19926;-67
2022/04/04 04:30:06;;;;;;;;;;;;;;;;;;5030307;28;20409;-67
2022/04/04 04:32:33;;;;;;;;;;;;;;;;;;5016782;28;19925;-67
2022/04/04 04:34:59;;;;;;;;;;;;;;;;;;5030057;28;19925;-64
2022/04/04 04:37:25;;;;;;;;;;;;;;;;;;5018147;28;19925;-66
2022/04/04 04:39:51;;;;;;;;;;;;;;;;;;5031002;28;19932;-67
2022/04/04 04:42:17;;;;;;;;;;;;;;;;;;5027635;28;19931;-68
2022/04/04 04:44:43;;;;;;;;;;;;;;;;;;5025977;28;19933;-67
2022/04/04 04:47:09;;;;;;;;;;;;;;;;;;5036906;28;19932;-69
2022/04/04 04:49:36;;;;;;;;;;;;;;;;;;5029960;28;20008;-68
2022/04/04 04:52:02;;;;;;;;;;;;;;;;;;5027796;28;19925;-68
2022/04/04 04:54:30;;;;;;;;;;;;;;;;;;5022715;28;19932;-68
2022/04/04 04:56:56;;;;;;;;;;;;;;;;;;5029242;28;19964;-68
2022/04/04 04:59:22;;;;;;;;;;;;;;;;;;5021463;28;19932;-68
2022/04/04 05:01:48;;;;;;;;;;;;;;;;;;5027351;28;19930;-68
2022/04/04 05:04:14;;;;;;;;;;;;;;;;;;4327610;28;10000856;-68
2022/04/04 05:06:40;;;;;;;;;;;;;;;;;;5024228;28;19932;-69
2022/04/04 05:09:06;;;;;;;;;;;;;;;;;;5011724;28;19929;-69
2022/04/04 05:11:33;;;;;;;;;;;;;;;;;;5022564;28;19937;-68
2022/04/04 05:13:59;;;;;;;;;;;;;;;;;;5020844;28;19925;-69
2022/04/04 05:16:28;;;;;;;;;;;;;;;;;;5013942;28;19936;-68
2022/04/04 05:18:54;;;;;;;;;;;;;;;;;;5021689;28;20214;-69
2022/04/04 05:21:21;;;;;;;;;;;;;;;;;;5029669;28;19976;-69
2022/04/04 05:23:47;;;;;;;;;;;;;;;;;;5035096;28;19992;-68
2022/04/04 05:26:13;;;;;;;;;;;;;;;;;;5041751;28;19945;-69
2022/04/04 05:28:39;;;;;;;;;;;;;;;;;;5034612;28;19925;-69
2022/04/04 05:31:05;;;;;;;;;;;;;;;;;;5042054;28;19926;-69
2022/04/04 05:33:32;;;;;;;;;;;;;;;;;;5040931;28;19956;-69
2022/04/04 05:35:58;;;;;;;;;;;;;;;;;;5043553;28;19929;-69
2022/04/04 05:38:25;;;;;;;;;;;;;;;;;;5047511;28;19964;-68
2022/04/04 05:40:51;;;;;;;;;;;;;;;;;;5045014;28;19937;-68
2022/04/04 05:43:18;;;;;;;;;;;;;;;;;;5038494;28;19936;-68
2022/04/04 05:45:44;;;;;;;;;;;;;;;;;;5047310;28;19940;-68
2022/04/04 05:48:10;;;;;;;;;;;;;;;;;;5045490;28;19929;-67
2022/04/04 05:50:36;;;;;;;;;;;;;;;;;;5045086;28;20053;-68
2022/04/04 05:53:03;;;;;;;;;;;;;;;;;;5037708;28;19925;-68
2022/04/04 05:55:31;;;;;;;;;;;;;;;;;;5047321;28;19929;-67
2022/04/04 05:57:57;;;;;;;;;;;;;;;;;;5037881;28;19929;-68
2022/04/04 06:00:24;;;;;;;;;;;;;;;;;;5039504;28;19931;-68
2022/04/04 06:02:50;;;;;;;;;;;;;;;;;;5042654;28;19990;-66
2022/04/04 06:05:16;;;;;;;;;;;;;;;;;;5037526;28;19937;-67
2022/04/04 06:07:43;;;;;;;;;;;;;;;;;;5036799;28;19929;-65
2022/04/04 06:10:09;;;;;;;;;;;;;;;;;;5044351;28;19929;-65
2022/04/04 06:12:35;;;;;;;;;;;;;;;;;;5038917;28;19929;-65
2022/04/04 06:15:01;;;;;;;;;;;;;;;;;;5038470;28;19960;-65
2022/04/04 06:17:27;;;;;;;;;;;;;;;;;;5043470;28;19936;-65
2022/04/04 06:19:55;;;;;;;;;;;;;;;;;;5041007;28;19929;-67
2022/04/04 06:22:22;;;;;;;;;;;;;;;;;;5029944;28;19933;-65
2022/04/04 06:24:48;;;;;;;;;;;;;;;;;;5011557;28;19976;-65
2022/04/04 06:27:15;;;;;;;;;;;;;;;;;;5020402;28;20412;-64
2022/04/04 06:29:41;;;;;;;;;;;;;;;;;;5029113;28;19925;-64
2022/04/04 06:32:07;;;;;;;;;;;;;;;;;;5017243;28;19941;-68
2022/04/04 06:34:33;;;;;;;;;;;;;;;;;;5011188;28;19925;-65
2022/04/04 06:36:59;;;;;;;;;;;;;;;;;;5024935;28;19968;-66
2022/04/04 06:39:25;;;;;;;;;;;;;;;;;;5027385;28;19959;-66
2022/04/04 06:41:52;;;;;;;;;;;;;;;;;;5017098;28;19925;-63
2022/04/04 06:44:18;;;;;;;;;;;;;;;;;;5008983;28;19926;-64
2022/04/04 06:46:44;;;;;;;;;;;;;;;;;;5016975;28;20383;-65
2022/04/04 06:49:10;;;;;;;;;;;;;;;;;;5023476;28;19925;-69
2022/04/04 06:51:36;;;;;;;;;;;;;;;;;;5023343;28;19933;-67
2022/04/04 06:54:03;;;;;;;;;;;;;;;;;;5021091;28;20326;-67
2022/04/04 06:56:29;;;;;;;;;;;;;;;;;;5019447;28;19925;-68
2022/04/04 06:58:56;;;;;;;;;;;;;;;;;;5020310;28;20295;-68
2022/04/04 07:01:22;;;;;;;;;;;;;;;;;;5022493;28;19955;-68
2022/04/04 07:03:48;;;;;;;;;;;;;;;;;;5019706;28;19933;-65
2022/04/04 07:06:15;;;;;;;;;;;;;;;;;;5024552;28;19999;-65
2022/04/04 07:08:42;;;;;;;;;;;;;;;;;;5016748;28;19990;-65
2022/04/04 07:11:10;;;;;;;;;;;;;;;;;;5015318;28;19929;-71
2022/04/04 07:13:36;;;;;;;;;;;;;;;;;;5018826;28;19933;-68
2022/04/04 07:16:02;;;;;;;;;;;;;;;;;;5025862;28;20298;-68
2022/04/04 07:18:28;;;;;;;;;;;;;;;;;;5024815;28;20176;-67
2022/04/04 07:20:55;;;;;;;;;;;;;;;;;;5025581;28;19929;-68
2022/04/04 07:23:21;;;;;;;;;;;;;;;;;;5027035;28;19949;-68
2022/04/04 07:25:47;;;;;;;;;;;;;;;;;;5025990;28;19972;-68
2022/04/04 07:28:14;;;;;;;;;;;;;;;;;;5027753;28;19949;-67
2022/04/04 07:30:40;;;;;;;;;;;;;;;;;;5028481;28;20403;-67
2022/04/04 07:33:06;;;;;;;;;;;;;;;;;;5011214;28;19992;-69
2022/04/04 07:35:33;;;;;;;;;;;;;;;;;;5025546;28;19967;-68
2022/04/04 07:37:59;;;;;;;;;;;;;;;;;;5029433;28;20397;-69
2022/04/04 07:40:25;;;;;;;;;;;;;;;;;;5029505;28;19943;-68
2022/04/04 07:42:51;;;;;;;;;;;;;;;;;;5017677;28;20016;-69
2022/04/04 07:45:17;;;;;;;;;;;;;;;;;;5031270;28;19925;-69
2022/04/04 07:47:43;;;;;;;;;;;;;;;;;;5029257;28;19970;-68
2022/04/04 07:50:09;;;;;;;;;;;;;;;;;;5026448;28;19975;-69
2022/04/04 07:52:36;;;;;;;;;;;;;;;;;;5025181;28;19939;-68
2022/04/04 07:55:02;;;;;;;;;;;;;;;;;;5017854;28;19963;-67
2022/04/04 07:57:28;;;;;;;;;;;;;;;;;;5028537;28;19946;-67
2022/04/04 07:59:54;;;;;;;;;;;;;;;;;;5023306;28;19950;-70
2022/04/04 08:02:20;;;;;;;;;;;;;;;;;;5014579;28;19930;-68
2022/04/04 08:04:46;;;;;;;;;;;;;;;;;;5037403;28;19955;-68
2022/04/04 08:07:13;;;;;;;;;;;;;;;;;;5023974;28;19930;-69
2022/04/04 08:09:39;;;;;;;;;;;;;;;;;;5030616;28;19969;-68
2022/04/04 08:12:05;;;;;;;;;;;;;;;;;;5010355;28;19983;-68
2022/04/04 08:14:31;;;;;;;;;;;;;;;;;;5023566;28;20437;-68
2022/04/04 08:16:57;;;;;;;;;;;;;;;;;;5022050;28;20464;-68
2022/04/04 08:19:23;;;;;;;;;;;;;;;;;;5025699;28;20398;-68
2022/04/04 08:21:50;;;;;;;;;;;;;;;;;;5021833;28;19962;-71
2022/04/04 08:24:16;;;;;;;;;;;;;;;;;;5025475;28;19962;-72
2022/04/04 08:26:42;;;;;;;;;;;;;;;;;;5011195;28;19965;-70
2022/04/04 08:29:09;;;;;;;;;;;;;;;;;;5028853;28;19929;-68
2022/04/04 08:31:35;;;;;;;;;;;;;;;;;;5022506;28;20387;-69
2022/04/04 08:34:01;;;;;;;;;;;;;;;;;;5025078;28;19933;-71
2022/04/04 08:36:27;;;;;;;;;;;;;;;;;;5028713;28;19929;-70
2022/04/04 08:38:53;;;;;;;;;;;;;;;;;;5028559;28;20008;-70
2022/04/04 08:41:19;;;;;;;;;;;;;;;;;;5021615;28;20436;-69
2022/04/04 08:43:49;;;;;;;;;;;;;;;;;;5009919;28;19999;-70
2022/04/04 08:46:15;;;;;;;;;;;;;;;;;;5019218;28;20334;-69
2022/04/04 08:48:41;;;;;;;;;;;;;;;;;;5028225;28;19929;-69
2022/04/04 08:51:08;;;;;;;;;;;;;;;;;;5024047;28;19942;-68
2022/04/04 08:53:34;;;;;;;;;;;;;;;;;;5026296;28;19975;-69
2022/04/04 08:56:01;;;;;;;;;;;;;;;;;;5014022;28;19932;-72
2022/04/04 08:58:27;;;;;;;;;;;;;;;;;;5025573;28;20020;-71
2022/04/04 09:00:53;;;;;;;;;;;;;;;;;;5010275;28;19950;-69
2022/04/04 09:03:19;;;;;;;;;;;;;;;;;;5023196;28;19943;-71
2022/04/04 09:05:45;;;;;;;;;;;;;;;;;;5017195;28;20006;-68
2022/04/04 09:08:12;;;;;;;;;;;;;;;;;;5022725;28;20157;-69
2022/04/04 09:10:40;;;;;;;;;;;;;;;;;;5030417;28;19929;-68
2022/04/04 09:13:06;;;;;;;;;;;;;;;;;;5016161;28;20006;-69
2022/04/04 09:15:32;;;;;;;;;;;;;;;;;;5028921;28;19978;-69
2022/04/04 09:17:58;;;;;;;;;;;;;;;;;;5024869;28;20048;-69
2022/04/04 09:20:24;;;;;;;;;;;;;;;;;;5025727;28;19966;-70
2022/04/04 09:22:50;;;;;;;;;;;;;;;;;;5040544;28;19954;-71
2022/04/04 09:25:16;;;;;;;;;;;;;;;;;;5031324;28;20173;-70
2022/04/04 09:27:43;;;;;;;;;;;;;;;;;;5019726;28;19933;-68
2022/04/04 09:30:09;;;;;;;;;;;;;;;;;;5025207;28;19957;-69
2022/04/04 09:32:35;;;;;;;;;;;;;;;;;;5022388;28;19941;-69
2022/04/04 09:35:04;;;;;;;;;;;;;;;;;;5009787;28;19976;-69
2022/04/04 09:37:30;;;;;;;;;;;;;;;;;;5024138;28;19929;-70
2022/04/04 09:39:56;;;;;;;;;;;;;;;;;;5028587;28;19951;-70
2022/04/04 09:42:24;;;;;;;;;;;;;;;;;;5013184;28;19984;-69
2022/04/04 09:44:50;;;;;;;;;;;;;;;;;;5019668;28;20365;-70
2022/04/04 09:47:16;;;;;;;;;;;;;;;;;;5024876;28;19964;-70
2022/04/04 09:49:42;;;;;;;;;;;;;;;;;;5027521;28;19974;-70
2022/04/04 09:52:08;;;;;;;;;;;;;;;;;;5023148;28;19947;-68
2022/04/04 09:54:34;;;;;;;;;;;;;;;;;;5022593;28;20019;-69
2022/04/04 09:57:00;;;;;;;;;;;;;;;;;;5022087;28;20477;-68
2022/04/04 09:59:27;;;;;;;;;;;;;;;;;;5009313;28;19937;-70
2022/04/04 10:01:53;;;;;;;;;;;;;;;;;;5025322;28;19925;-69
2022/04/04 10:04:19;;;;;;;;;;;;;;;;;;5023666;28;19925;-69
2022/04/04 10:06:47;;;;;;;;;;;;;;;;;;5024157;28;19926;-71
2022/04/04 10:09:13;;;;;;;;;;;;;;;;;;5029034;28;19925;-67
2022/04/04 10:11:39;;;;;;;;;;;;;;;;;;5010854;28;19931;-68
2022/04/04 10:14:05;;;;;;;;;;;;;;;;;;5018638;28;19959;-68
2022/04/04 10:16:31;;;;;;;;;;;;;;;;;;5027193;28;19962;-68
2022/04/04 10:18:58;;;;;;;;;;;;;;;;;;5029019;28;19932;-68
2022/04/04 10:21:25;;;;;;;;;;;;;;;;;;5029706;28;19929;-69
2022/04/04 10:23:51;;;;;;;;;;;;;;;;;;5034663;28;19952;-69
2022/04/04 10:26:17;;;;;;;;;;;;;;;;;;5027912;28;19928;-69
2022/04/04 10:28:46;;;;;;;;;;;;;;;;;;5024908;28;19930;-70
2022/04/04 10:31:12;;;;;;;;;;;;;;;;;;5034985;28;19960;-69
2022/04/04 10:33:38;;;;;;;;;;;;;;;;;;5028635;28;19970;-69
2022/04/04 10:36:04;;;;;;;;;;;;;;;;;;5022318;28;19944;-68
2022/04/04 10:38:31;;;;;;;;;;;;;;;;;;5020141;28;20042;-69
2022/04/04 10:40:57;;;;;;;;;;;;;;;;;;5023078;28;20314;-69
2022/04/04 10:43:23;;;;;;;;;;;;;;;;;;5011791;28;20382;-69
2022/04/04 10:45:49;;;;;;;;;;;;;;;;;;5021899;28;19964;-70
2022/04/04 10:48:15;;;;;;;;;;;;;;;;;;5024911;28;19925;-67
2022/04/04 10:50:41;;;;;;;;;;;;;;;;;;5027000;28;20155;-68
2022/04/04 10:53:08;;;;;;;;;;;;;;;;;;5026444;28;19925;-67
2022/04/04 10:55:34;;;;;;;;;;;;;;;;;;5024882;28;19976;-69
2022/04/04 10:58:00;;;;;;;;;;;;;;;;;;5021467;28;20421;-68
2022/04/04 11:00:27;;;;;;;;;;;;;;;;;;5030629;28;19929;-71
2022/04/04 11:02:53;;;;;;;;;;;;;;;;;;5021997;28;19937;-69
2022/04/04 11:08:05;;;;;;;;;;;;;;;;;;4998193;28;20019;-68
2022/04/04 11:10:31;;;;;;;;;;;;;;;;;;5032250;28;19936;-68
2022/04/04 11:12:57;;;;;;;;;;;;;;;;;;5017791;28;20434;-69
2022/04/04 11:15:27;;;;;;;;;;;;;;;;;;5024471;28;19928;-69
2022/04/04 11:17:54;;;;;;;;;;;;;;;;;;5019363;28;19930;-69
2022/04/04 11:20:31;;;;;;;;;;;;;;;;;;5031860;28;20360;-68
2022/04/04 11:22:57;;;;;;;;;;;;;;;;;;5031101;28;19929;-68
2022/04/04 11:25:26;;;;;;;;;;;;;;;;;;5024626;28;20390;-70
2022/04/04 11:27:54;;;;;;;;;;;;;;;;;;5023680;28;20447;-70
2022/04/04 11:30:20;;;;;;;;;;;;;;;;;;5020954;28;19929;-68
2022/04/04 11:32:49;;;;;;;;;;;;;;;;;;5031053;28;20020;-68
2022/04/04 11:35:18;;;;;;;;;;;;;;;;;;5030571;28;19925;-68
2022/04/04 11:37:44;;;;;;;;;;;;;;;;;;5033067;28;19929;-69
2022/04/04 11:40:13;;;;;;;;;;;;;;;;;;5030214;28;20459;-69
2022/04/04 11:42:40;;;;;;;;;;;;;;;;;;5014788;28;19929;-68
2022/04/04 11:45:06;;;;;;;;;;;;;;;;;;5025102;28;20382;-68
2022/04/04 11:47:32;;;;;;;;;;;;;;;;;;5026767;28;19936;-71
2022/04/04 11:50:01;;;;;;;;;;;;;;;;;;5032974;28;19932;-68
2022/04/04 11:52:27;;;;;;;;;;;;;;;;;;5039945;28;19956;-69
2022/04/04 11:54:53;;;;;;;;;;;;;;;;;;5032470;28;19932;-69
2022/04/04 11:57:19;;;;;;;;;;;;;;;;;;5031119;28;19972;-69
2022/04/04 11:59:45;;;;;;;;;;;;;;;;;;5034347;28;19935;-72
2022/04/04 12:02:13;;;;;;;;;;;;;;;;;;5047380;28;20152;-71
2022/04/04 12:04:39;;;;;;;;;;;;;;;;;;5045295;28;19956;-72
2022/04/04 12:07:05;;;;;;;;;;;;;;;;;;5038702;28;19925;-70
2022/04/04 12:09:31;;;;;;;;;;;;;;;;;;5036973;28;19925;-72
2022/04/04 12:11:57;;;;;;;;;;;;;;;;;;5040086;28;20092;-71
2022/04/04 12:14:24;;;;;;;;;;;;;;;;;;5031506;28;19929;-71
2022/04/04 12:16:52;;;;;;;;;;;;;;;;;;5035331;28;19930;-70
2022/04/04 12:19:18;;;;;;;;;;;;;;;;;;5039672;28;19936;-72
2022/04/04 12:21:44;;;;;;;;;;;;;;;;;;5035643;28;19985;-71
2022/04/04 12:26:54;;;;;;;;;;;;;;;;;;5035380;28;19975;-70
2022/04/04 12:29:20;;;;;;;;;;;;;;;;;;5020274;28;19937;-69
2022/04/04 12:31:46;;;;;;;;;;;;;;;;;;5036136;28;19935;-72
2022/04/04 12:34:12;;;;;;;;;;;;;;;;;;5032492;28;19929;-72
2022/04/04 12:36:38;;;;;;;;;;;;;;;;;;5041747;28;19919;-71
2022/04/04 12:39:05;;;;;;;;;;;;;;;;;;5046428;28;19940;-71
2022/04/04 12:41:31;;;;;;;;;;;;;;;;;;5042562;28;20370;-72
2022/04/04 12:43:58;;;;;;;;;;;;;;;;;;5038752;28;19963;-71
2022/04/04 12:46:24;;;;;;;;;;;;;;;;;;5038903;28;19929;-69
2022/04/04 12:48:50;;;;;;;;;;;;;;;;;;5038347;28;20024;-72
2022/04/04 12:51:16;;;;;;;;;;;;;;;;;;5039247;28;19935;-70
2022/04/04 12:53:42;;;;;;;;;;;;;;;;;;5036269;28;19933;-70
2022/04/04 12:56:09;;;;;;;;;;;;;;;;;;5040603;28;19933;-70
2022/04/04 12:58:36;;;;;;;;;;;;;;;;;;5041791;28;19937;-70
2022/04/04 13:01:02;;;;;;;;;;;;;;;;;;5033888;28;19960;-73
2022/04/04 13:03:28;;;;;;;;;;;;;;;;;;5043011;28;19932;-70
2022/04/04 13:05:54;;;;;;;;;;;;;;;;;;5036276;28;19930;-71
2022/04/04 13:08:20;;;;;;;;;;;;;;;;;;5035041;28;19956;-72
2022/04/04 13:10:46;;;;;;;;;;;;;;;;;;5025621;28;20370;-70
2022/04/04 13:13:15;;;;;;;;;;;;;;;;;;5035284;28;19929;-70
2022/04/04 13:15:42;;;;;;;;;;;;;;;;;;5032278;28;19957;-73
2022/04/04 13:18:08;;;;;;;;;;;;;;;;;;5037099;28;19930;-72
2022/04/04 13:20:34;;;;;;;;;;;;;;;;;;5032395;28;19929;-69
2022/04/04 13:23:00;;;;;;;;;;;;;;;;;;5035272;28;19925;-72
2022/04/04 13:25:26;;;;;;;;;;;;;;;;;;5026786;28;19929;-71
2022/04/04 13:27:53;;;;;;;;;;;;;;;;;;5036239;28;19930;-73
2022/04/04 13:30:19;;;;;;;;;;;;;;;;;;5037478;28;20402;-70
2022/04/04 13:32:46;;;;;;;;;;;;;;;;;;5038569;28;19959;-70
2022/04/04 13:35:12;;;;;;;;;;;;;;;;;;5037357;28;20341;-73
2022/04/04 13:37:38;;;;;;;;;;;;;;;;;;5036600;28;19925;-70
2022/04/04 13:40:05;;;;;;;;;;;;;;;;;;5037285;28;20290;-71
2022/04/04 13:42:31;;;;;;;;;;;;;;;;;;5029230;28;20393;-69
2022/04/04 13:44:57;;;;;;;;;;;;;;;;;;5016668;28;19975;-68
2022/04/04 13:47:23;;;;;;;;;;;;;;;;;;5037310;28;19940;-70
2022/04/04 13:49:49;;;;;;;;;;;;;;;;;;5035181;28;19933;-70
2022/04/04 13:52:15;;;;;;;;;;;;;;;;;;5037744;28;19930;-71
2022/04/04 13:54:42;;;;;;;;;;;;;;;;;;5040169;28;19951;-70
2022/04/04 13:57:08;;;;;;;;;;;;;;;;;;5039537;28;19929;-67
2022/04/04 13:59:34;;;;;;;;;;;;;;;;;;5032526;28;19925;-65
2022/04/04 14:02:01;;;;;;;;;;;;;;;;;;5035173;28;19976;-65
2022/04/04 14:04:27;;;;;;;;;;;;;;;;;;5034346;28;19997;-64
2022/04/04 14:06:53;;;;;;;;;;;;;;;;;;5031245;28;19926;-64
2022/04/04 14:09:19;;;;;;;;;;;;;;;;;;5035204;28;19940;-67
2022/04/04 14:11:46;;;;;;;;;;;;;;;;;;5036328;28;19929;-64
2022/04/04 14:14:12;;;;;;;;;;;;;;;;;;5036858;28;19933;-67
2022/04/04 14:16:39;;;;;;;;;;;;;;;;;;5029712;28;20060;-67
2022/04/04 14:19:05;;;;;;;;;;;;;;;;;;5034990;28;19925;-66
2022/04/04 14:21:31;;;;;;;;;;;;;;;;;;5031072;28;19929;-65
2022/04/04 14:23:57;;;;;;;;;;;;;;;;;;5023083;28;19994;-65
2022/04/04 14:26:23;;;;;;;;;;;;;;;;;;5024576;28;19978;-65
2022/04/04 14:28:50;;;;;;;;;;;;;;;;;;5026929;28;19985;-66
2022/04/04 14:31:16;;;;;;;;;;;;;;;;;;5026940;28;19968;-66
2022/04/04 14:33:43;;;;;;;;;;;;;;;;;;5021561;28;19976;-66
2022/04/04 14:36:09;;;;;;;;;;;;;;;;;;5018744;28;20456;-66
2022/04/04 14:38:37;;;;;;;;;;;;;;;;;;5027395;28;20304;-66
2022/04/04 14:41:03;;;;;;;;;;;;;;;;;;5028293;28;20370;-66
2022/04/04 14:43:30;;;;;;;;;;;;;;;;;;5025314;28;19983;-67
2022/04/04 14:45:56;;;;;;;;;;;;;;;;;;5022115;28;20062;-65
2022/04/04 14:48:22;;;;;;;;;;;;;;;;;;5038205;28;19956;-68
2022/04/04 14:50:48;;;;;;;;;;;;;;;;;;5034761;28;19975;-68
2022/04/04 14:53:15;;;;;;;;;;;;;;;;;;5028250;28;19956;-66
2022/04/04 14:55:41;;;;;;;;;;;;;;;;;;5039617;28;20019;-67
2022/04/04 14:58:07;;;;;;;;;;;;;;;;;;5039024;28;19956;-66
2022/04/04 15:00:34;;;;;;;;;;;;;;;;;;5026782;28;19977;-66
2022/04/04 15:03:00;;;;;;;;;;;;;;;;;;5035475;28;20019;-66
2022/04/04 15:05:27;;;;;;;;;;;;;;;;;;5036304;28;19978;-67
2022/04/04 15:07:53;;;;;;;;;;;;;;;;;;5030651;28;19942;-66
2022/04/04 15:10:22;;;;;;;;;;;;;;;;;;5034461;28;20199;-67
2022/04/04 15:12:48;;;;;;;;;;;;;;;;;;5031138;28;20243;-66
2022/04/04 15:15:15;;;;;;;;;;;;;;;;;;5035903;28;20031;-65
2022/04/04 15:17:41;;;;;;;;;;;;;;;;;;5027039;28;19973;-67
2022/04/04 15:20:09;;;;;;;;;;;;;;;;;;5028199;28;20134;-66
2022/04/04 15:22:35;;;;;;;;;;;;;;;;;;5017592;28;19970;-68
2022/04/04 15:25:01;;;;;;;;;;;;;;;;;;5027839;28;19981;-67
2022/04/04 15:27:28;;;;;;;;;;;;;;;;;;5024464;28;19970;-71
2022/04/04 15:29:54;;;;;;;;;;;;;;;;;;5017882;28;19946;-68
2022/04/04 15:32:20;;;;;;;;;;;;;;;;;;5013002;28;19963;-68
2022/04/04 15:34:46;;;;;;;;;;;;;;;;;;5019188;28;20470;-68
2022/04/04 15:37:12;;;;;;;;;;;;;;;;;;5030293;28;19983;-66
2022/04/04 15:39:39;;;;;;;;;;;;;;;;;;5011475;28;19978;-67
2022/04/04 15:42:05;;;;;;;;;;;;;;;;;;5014700;28;20011;-65
2022/04/04 15:44:33;;;;;;;;;;;;;;;;;;5018712;28;20469;-65
2022/04/04 15:46:59;;;;;;;;;;;;;;;;;;5014555;28;19969;-66
2022/04/04 15:49:25;;;;;;;;;;;;;;;;;;5014691;28;19972;-66
2022/04/04 15:51:51;;;;;;;;;;;;;;;;;;5017222;28;20073;-66
2022/04/04 15:54:18;;;;;;;;;;;;;;;;;;5022868;28;20037;-66
2022/04/04 15:56:44;;;;;;;;;;;;;;;;;;5021942;28;20366;-66
2022/04/04 15:59:13;;;;;;;;;;;;;;;;;;5024172;28;19956;-66
2022/04/04 16:01:39;;;;;;;;;;;;;;;;;;5010537;28;19972;-66
2022/04/04 16:04:05;;;;;;;;;;;;;;;;;;5014545;28;19961;-65
2022/04/04 16:06:31;;;;;;;;;;;;;;;;;;5016640;28;19951;-65
2022/04/04 16:08:59;;;;;;;;;;;;;;;;;;5018087;28;20386;-66
2022/04/04 16:11:25;;;;;;;;;;;;;;;;;;5022878;28;19945;-66
2022/04/04 16:13:51;;;;;;;;;;;;;;;;;;5011542;28;20435;-65
2022/04/04 16:16:18;;;;;;;;;;;;;;;;;;5016561;28;20185;-68
2022/04/04 16:18:44;;;;;;;;;;;;;;;;;;5017967;28;19933;-66
2022/04/04 16:21:10;;;;;;;;;;;;;;;;;;5019886;28;20039;-66
2022/04/04 16:23:36;;;;;;;;;;;;;;;;;;5010407;28;19964;-66
2022/04/04 16:26:02;;;;;;;;;;;;;;;;;;5015063;28;20037;-66
2022/04/04 16:28:29;;;;;;;;;;;;;;;;;;5019051;28;19929;-66
2022/04/04 16:30:57;;;;;;;;;;;;;;;;;;5017230;28;20006;-65
2022/04/04 16:33:24;;;;;;;;;;;;;;;;;;5021779;28;19954;-66
2022/04/04 16:35:51;;;;;;;;;;;;;;;;;;5014217;28;19933;-66
2022/04/04 16:38:18;;;;;;;;;;;;;;;;;;5019147;28;19944;-66
2022/04/04 16:40:44;;;;;;;;;;;;;;;;;;5014578;28;19932;-67
2022/04/04 16:43:10;;;;;;;;;;;;;;;;;;5024836;28;19925;-66
2022/04/04 16:45:36;;;;;;;;;;;;;;;;;;5025213;28;19925;-67
2022/04/04 16:48:02;;;;;;;;;;;;;;;;;;5023004;28;20296;-66
2022/04/04 16:50:28;;;;;;;;;;;;;;;;;;5028538;28;19935;-66